Terminal Aerodrome Forecast
Issued by NWS Omaha/Valley, NE

Home | Current Version | Previous Version | Graphics & Text | Print | Product List | Glossary On
Versions: 1 2 3 4 5 6 7 8 9 10 11 12 13 14 15 16 17
000
FTUS43 KOAX 180520
TAFOFK
TAF
KOFK 180520Z 1806/1906 16008KT P6SM BKN140
     FM181800 18014KT P6SM SCT140
     FM190000 15008KT P6SM BKN140=

USA.gov is the U.S. government's official web portal to all federal, state and local government web resources and services.